Terminal Aerodrome Forecast
Issued by NWS Duluth, MN

Home | Current Version | Previous Version | Text Only | Print | Product List | Glossary On
Versions: 1 2 3 4 5 6 7 8 9 10 11 12 13 14 15 16 17 18 19 20 21 22 23 24 25
000
FTUS43 KDLH 270500
TAFINL
TAF
KINL 270528Z 2706/2806 VRB03KT P6SM SCT040 BKN110
     FM270900 VRB03KT 5SM BR SCT025 BKN040
      TEMPO 2711/2713 3SM BR SCT015 BKN030
     FM271500 29005KT P6SM SKC
     FM272200 24005KT P6SM SCT050=

USA.gov is the U.S. government's official web portal to all federal, state and local government web resources and services.